sensor_id;sensor_type;location;lat;lon;timestamp;temperature;humidity
18291;DHT22;9271;48.590;8.866;2023-07-22T00:01:40;14.40;99.90
18291;DHT22;9271;48.590;8.866;2023-07-22T00:04:07;14.20;99.90
18291;DHT22;9271;48.590;8.866;2023-07-22T00:06:33;14.10;99.90
18291;DHT22;9271;48.590;8.866;2023-07-22T00:09:00;14.30;99.90
18291;DHT22;9271;48.590;8.866;2023-07-22T00:11:28;14.50;99.90
18291;DHT22;9271;48.590;8.866;2023-07-22T00:13:56;14.80;99.90
18291;DHT22;9271;48.590;8.866;2023-07-22T00:16:22;15.20;99.90
18291;DHT22;9271;48.590;8.866;2023-07-22T00:18:50;15.30;99.90
18291;DHT22;9271;48.590;8.866;2023-07-22T00:21:16;15.30;99.90
18291;DHT22;9271;48.590;8.866;2023-07-22T00:23:43;15.20;99.90
18291;DHT22;9271;48.590;8.866;2023-07-22T00:26:11;15.10;99.90
18291;DHT22;9271;48.590;8.866;2023-07-22T00:28:38;15.10;99.90
18291;DHT22;9271;48.590;8.866;2023-07-22T00:31:06;15.00;99.90
18291;DHT22;9271;48.590;8.866;2023-07-22T00:33:33;15.10;99.90
18291;DHT22;9271;48.590;8.866;2023-07-22T00:36:00;15.20;99.90
18291;DHT22;9271;48.590;8.866;2023-07-22T00:38:27;15.10;99.90
18291;DHT22;9271;48.590;8.866;2023-07-22T00:40:53;15.20;99.90
18291;DHT22;9271;48.590;8.866;2023-07-22T00:43:20;15.10;99.90
18291;DHT22;9271;48.590;8.866;2023-07-22T00:45:47;14.90;99.90
18291;DHT22;9271;48.590;8.866;2023-07-22T00:48:16;14.90;99.90
18291;DHT22;9271;48.590;8.866;2023-07-22T00:50:43;14.80;99.90
18291;DHT22;9271;48.590;8.866;2023-07-22T00:53:10;15.00;99.90
18291;DHT22;9271;48.590;8.866;2023-07-22T00:55:39;15.00;99.90
18291;DHT22;9271;48.590;8.866;2023-07-22T00:58:06;14.80;99.90
18291;DHT22;9271;48.590;8.866;2023-07-22T01:00:32;14.70;99.90
18291;DHT22;9271;48.590;8.866;2023-07-22T01:03:00;14.80;99.90
18291;DHT22;9271;48.590;8.866;2023-07-22T01:05:28;14.80;99.90
18291;DHT22;9271;48.590;8.866;2023-07-22T01:07:55;14.80;99.90
18291;DHT22;9271;48.590;8.866;2023-07-22T01:10:22;14.70;99.90
18291;DHT22;9271;48.590;8.866;2023-07-22T01:12:49;14.50;99.90
18291;DHT22;9271;48.590;8.866;2023-07-22T01:15:15;14.50;99.90
18291;DHT22;9271;48.590;8.866;2023-07-22T01:17:43;14.50;99.90
18291;DHT22;9271;48.590;8.866;2023-07-22T01:20:11;14.50;99.90
18291;DHT22;9271;48.590;8.866;2023-07-22T01:22:42;14.40;99.90
18291;DHT22;9271;48.590;8.866;2023-07-22T01:25:10;14.20;99.90
18291;DHT22;9271;48.590;8.866;2023-07-22T01:27:37;14.10;99.90
18291;DHT22;9271;48.590;8.866;2023-07-22T01:30:05;13.90;99.90
18291;DHT22;9271;48.590;8.866;2023-07-22T01:32:35;13.80;99.90
18291;DHT22;9271;48.590;8.866;2023-07-22T01:35:01;13.80;99.90
18291;DHT22;9271;48.590;8.866;2023-07-22T01:37:28;13.80;99.90
18291;DHT22;9271;48.590;8.866;2023-07-22T01:39:55;13.90;99.90
18291;DHT22;9271;48.590;8.866;2023-07-22T01:42:23;14.00;99.90
18291;DHT22;9271;48.590;8.866;2023-07-22T01:44:50;13.90;99.90
18291;DHT22;9271;48.590;8.866;2023-07-22T01:47:17;13.80;99.90
18291;DHT22;9271;48.590;8.866;2023-07-22T01:49:44;13.80;99.90
18291;DHT22;9271;48.590;8.866;2023-07-22T01:52:10;13.80;99.90
18291;DHT22;9271;48.590;8.866;2023-07-22T01:54:37;13.70;99.90
18291;DHT22;9271;48.590;8.866;2023-07-22T01:57:05;13.60;99.90
18291;DHT22;9271;48.590;8.866;2023-07-22T01:59:33;13.40;99.90
18291;DHT22;9271;48.590;8.866;2023-07-22T02:01:59;13.50;99.90
18291;DHT22;9271;48.590;8.866;2023-07-22T02:04:26;13.60;99.90
18291;DHT22;9271;48.590;8.866;2023-07-22T02:06:53;13.60;99.90
18291;DHT22;9271;48.590;8.866;2023-07-22T02:09:19;13.60;99.90
18291;DHT22;9271;48.590;8.866;2023-07-22T02:11:46;13.60;99.90
18291;DHT22;9271;48.590;8.866;2023-07-22T02:14:13;13.50;99.90
18291;DHT22;9271;48.590;8.866;2023-07-22T02:16:41;13.80;99.90
18291;DHT22;9271;48.590;8.866;2023-07-22T02:19:08;13.80;99.90
18291;DHT22;9271;48.590;8.866;2023-07-22T02:21:35;13.90;99.90
18291;DHT22;9271;48.590;8.866;2023-07-22T02:24:01;13.90;99.90
18291;DHT22;9271;48.590;8.866;2023-07-22T02:26:28;14.00;99.90
18291;DHT22;9271;48.590;8.866;2023-07-22T02:28:55;14.00;99.90
18291;DHT22;9271;48.590;8.866;2023-07-22T02:31:22;14.10;99.90
18291;DHT22;9271;48.590;8.866;2023-07-22T02:33:50;13.80;99.90
18291;DHT22;9271;48.590;8.866;2023-07-22T02:36:16;13.60;99.90
18291;DHT22;9271;48.590;8.866;2023-07-22T02:38:43;13.50;99.90
18291;DHT22;9271;48.590;8.866;2023-07-22T02:41:10;13.50;99.90
18291;DHT22;9271;48.590;8.866;2023-07-22T02:43:36;13.40;99.90
18291;DHT22;9271;48.590;8.866;2023-07-22T02:46:05;13.40;99.90
18291;DHT22;9271;48.590;8.866;2023-07-22T02:48:33;13.40;99.90
18291;DHT22;9271;48.590;8.866;2023-07-22T02:51:04;13.60;99.90
18291;DHT22;9271;48.590;8.866;2023-07-22T02:53:31;13.50;99.90
18291;DHT22;9271;48.590;8.866;2023-07-22T02:55:58;13.30;99.90
18291;DHT22;9271;48.590;8.866;2023-07-22T02:58:25;13.30;99.90
18291;DHT22;9271;48.590;8.866;2023-07-22T03:00:52;13.20;99.90
18291;DHT22;9271;48.590;8.866;2023-07-22T03:03:18;13.10;99.90
18291;DHT22;9271;48.590;8.866;2023-07-22T03:05:45;13.10;99.90
18291;DHT22;9271;48.590;8.866;2023-07-22T03:08:14;13.30;99.90
18291;DHT22;9271;48.590;8.866;2023-07-22T03:10:40;13.20;99.90
18291;DHT22;9271;48.590;8.866;2023-07-22T03:13:09;13.30;99.90
18291;DHT22;9271;48.590;8.866;2023-07-22T03:15:36;13.30;99.90
18291;DHT22;9271;48.590;8.866;2023-07-22T03:18:02;13.20;99.90
18291;DHT22;9271;48.590;8.866;2023-07-22T03:20:30;12.90;99.90
18291;DHT22;9271;48.590;8.866;2023-07-22T03:22:57;13.10;99.90
18291;DHT22;9271;48.590;8.866;2023-07-22T03:25:24;13.20;99.90
18291;DHT22;9271;48.590;8.866;2023-07-22T03:27:50;13.50;99.90
18291;DHT22;9271;48.590;8.866;2023-07-22T03:30:18;13.60;99.90
18291;DHT22;9271;48.590;8.866;2023-07-22T03:32:46;13.70;99.90
18291;DHT22;9271;48.590;8.866;2023-07-22T03:35:16;13.60;99.90
18291;DHT22;9271;48.590;8.866;2023-07-22T03:37:42;13.60;99.90
18291;DHT22;9271;48.590;8.866;2023-07-22T03:40:10;13.50;99.90
18291;DHT22;9271;48.590;8.866;2023-07-22T03:42:44;13.50;99.90
18291;DHT22;9271;48.590;8.866;2023-07-22T03:45:11;13.40;99.90
18291;DHT22;9271;48.590;8.866;2023-07-22T03:47:38;13.40;99.90
18291;DHT22;9271;48.590;8.866;2023-07-22T03:50:06;13.40;99.90
18291;DHT22;9271;48.590;8.866;2023-07-22T03:52:33;13.40;99.90
18291;DHT22;9271;48.590;8.866;2023-07-22T03:54:59;13.40;99.90
18291;DHT22;9271;48.590;8.866;2023-07-22T03:57:26;13.50;99.90
18291;DHT22;9271;48.590;8.866;2023-07-22T03:59:55;13.50;99.90
18291;DHT22;9271;48.590;8.866;2023-07-22T04:02:21;13.40;99.90
18291;DHT22;9271;48.590;8.866;2023-07-22T04:04:49;13.40;99.90
18291;DHT22;9271;48.590;8.866;2023-07-22T04:07:16;13.50;99.90
18291;DHT22;9271;48.590;8.866;2023-07-22T04:09:43;13.60;99.90
18291;DHT22;9271;48.590;8.866;2023-07-22T04:12:10;13.60;99.90
18291;DHT22;9271;48.590;8.866;2023-07-22T04:14:38;13.50;99.90
18291;DHT22;9271;48.590;8.866;2023-07-22T04:17:06;13.60;99.90
18291;DHT22;9271;48.590;8.866;2023-07-22T04:19:34;13.70;99.90
18291;DHT22;9271;48.590;8.866;2023-07-22T04:22:01;13.80;99.90
18291;DHT22;9271;48.590;8.866;2023-07-22T04:24:29;14.00;99.90
18291;DHT22;9271;48.590;8.866;2023-07-22T04:26:56;13.90;99.90
18291;DHT22;9271;48.590;8.866;2023-07-22T04:29:23;13.90;99.90
18291;DHT22;9271;48.590;8.866;2023-07-22T04:31:50;13.90;99.90
18291;DHT22;9271;48.590;8.866;2023-07-22T04:34:18;14.00;99.90
18291;DHT22;9271;48.590;8.866;2023-07-22T04:36:44;14.00;99.90
18291;DHT22;9271;48.590;8.866;2023-07-22T04:39:11;14.10;99.90
18291;DHT22;9271;48.590;8.866;2023-07-22T04:41:38;14.10;99.90
18291;DHT22;9271;48.590;8.866;2023-07-22T04:44:04;14.10;99.90
18291;DHT22;9271;48.590;8.866;2023-07-22T04:46:31;14.20;99.90
18291;DHT22;9271;48.590;8.866;2023-07-22T04:48:58;14.30;99.90
18291;DHT22;9271;48.590;8.866;2023-07-22T04:51:26;14.30;99.90
18291;DHT22;9271;48.590;8.866;2023-07-22T04:53:53;14.30;99.90
18291;DHT22;9271;48.590;8.866;2023-07-22T04:56:19;14.40;99.90
18291;DHT22;9271;48.590;8.866;2023-07-22T04:58:46;14.60;99.90
18291;DHT22;9271;48.590;8.866;2023-07-22T05:01:14;14.60;99.90
18291;DHT22;9271;48.590;8.866;2023-07-22T05:03:41;14.50;99.90
18291;DHT22;9271;48.590;8.866;2023-07-22T05:06:08;14.60;99.90
18291;DHT22;9271;48.590;8.866;2023-07-22T05:08:36;14.40;99.90
18291;DHT22;9271;48.590;8.866;2023-07-22T05:11:04;14.30;99.90
18291;DHT22;9271;48.590;8.866;2023-07-22T05:13:30;14.70;99.90
18291;DHT22;9271;48.590;8.866;2023-07-22T05:15:57;14.80;99.90
18291;DHT22;9271;48.590;8.866;2023-07-22T05:18:24;15.00;99.90
18291;DHT22;9271;48.590;8.866;2023-07-22T05:20:50;14.90;99.90
18291;DHT22;9271;48.590;8.866;2023-07-22T05:23:17;15.00;99.90
18291;DHT22;9271;48.590;8.866;2023-07-22T05:25:50;14.90;99.90
18291;DHT22;9271;48.590;8.866;2023-07-22T05:28:17;15.00;99.90
18291;DHT22;9271;48.590;8.866;2023-07-22T05:30:44;15.00;99.90
18291;DHT22;9271;48.590;8.866;2023-07-22T05:33:10;15.20;99.90
18291;DHT22;9271;48.590;8.866;2023-07-22T05:35:37;15.20;99.90
18291;DHT22;9271;48.590;8.866;2023-07-22T05:38:04;15.50;99.90
18291;DHT22;9271;48.590;8.866;2023-07-22T05:40:31;15.80;99.90
18291;DHT22;9271;48.590;8.866;2023-07-22T05:42:59;15.90;99.90
18291;DHT22;9271;48.590;8.866;2023-07-22T05:45:26;15.90;99.90
18291;DHT22;9271;48.590;8.866;2023-07-22T05:47:53;16.20;99.90
18291;DHT22;9271;48.590;8.866;2023-07-22T05:50:19;16.30;99.90
18291;DHT22;9271;48.590;8.866;2023-07-22T05:52:46;16.30;99.90
18291;DHT22;9271;48.590;8.866;2023-07-22T05:55:13;16.40;99.90
18291;DHT22;9271;48.590;8.866;2023-07-22T05:57:40;16.60;99.90
18291;DHT22;9271;48.590;8.866;2023-07-22T06:00:09;16.60;99.90
18291;DHT22;9271;48.590;8.866;2023-07-22T06:02:38;16.60;99.90
18291;DHT22;9271;48.590;8.866;2023-07-22T06:05:05;16.60;99.90
18291;DHT22;9271;48.590;8.866;2023-07-22T06:07:32;16.70;99.90
18291;DHT22;9271;48.590;8.866;2023-07-22T06:09:59;16.80;99.90
18291;DHT22;9271;48.590;8.866;2023-07-22T06:12:25;17.20;99.90
18291;DHT22;9271;48.590;8.866;2023-07-22T06:14:52;17.20;99.90
18291;DHT22;9271;48.590;8.866;2023-07-22T06:17:20;17.50;99.90
18291;DHT22;9271;48.590;8.866;2023-07-22T06:19:47;17.50;99.90
18291;DHT22;9271;48.590;8.866;2023-07-22T06:22:13;17.40;99.90
18291;DHT22;9271;48.590;8.866;2023-07-22T06:24:40;17.50;99.90
18291;DHT22;9271;48.590;8.866;2023-07-22T06:27:07;17.70;99.90
18291;DHT22;9271;48.590;8.866;2023-07-22T06:29:33;18.00;99.90
18291;DHT22;9271;48.590;8.866;2023-07-22T06:32:00;18.20;99.90
18291;DHT22;9271;48.590;8.866;2023-07-22T06:34:28;18.50;99.90
18291;DHT22;9271;48.590;8.866;2023-07-22T06:36:54;18.60;99.70
18291;DHT22;9271;48.590;8.866;2023-07-22T06:39:21;18.90;99.90
18291;DHT22;9271;48.590;8.866;2023-07-22T06:41:48;19.00;99.40
18291;DHT22;9271;48.590;8.866;2023-07-22T06:44:14;19.20;98.60
18291;DHT22;9271;48.590;8.866;2023-07-22T06:46:41;19.30;98.60
18291;DHT22;9271;48.590;8.866;2023-07-22T06:49:09;19.40;98.70
18291;DHT22;9271;48.590;8.866;2023-07-22T06:51:37;19.70;98.40
18291;DHT22;9271;48.590;8.866;2023-07-22T06:54:04;19.70;98.40
18291;DHT22;9271;48.590;8.866;2023-07-22T06:56:31;19.80;98.70
18291;DHT22;9271;48.590;8.866;2023-07-22T06:58:58;20.20;98.30
18291;DHT22;9271;48.590;8.866;2023-07-22T07:01:24;20.40;97.70
18291;DHT22;9271;48.590;8.866;2023-07-22T07:03:51;20.40;97.60
18291;DHT22;9271;48.590;8.866;2023-07-22T07:06:18;20.60;97.70
18291;DHT22;9271;48.590;8.866;2023-07-22T07:08:46;20.90;97.20
18291;DHT22;9271;48.590;8.866;2023-07-22T07:11:14;20.80;96.40
18291;DHT22;9271;48.590;8.866;2023-07-22T07:13:41;20.60;96.80
18291;DHT22;9271;48.590;8.866;2023-07-22T07:16:20;20.70;97.10
18291;DHT22;9271;48.590;8.866;2023-07-22T07:18:48;20.90;97.40
18291;DHT22;9271;48.590;8.866;2023-07-22T07:21:15;21.10;97.20
18291;DHT22;9271;48.590;8.866;2023-07-22T07:23:41;21.20;96.80
18291;DHT22;9271;48.590;8.866;2023-07-22T07:26:09;21.60;96.50
18291;DHT22;9271;48.590;8.866;2023-07-22T07:28:36;21.90;95.90
18291;DHT22;9271;48.590;8.866;2023-07-22T07:31:03;22.20;95.20
18291;DHT22;9271;48.590;8.866;2023-07-22T07:33:29;22.60;94.60
18291;DHT22;9271;48.590;8.866;2023-07-22T07:35:56;23.20;93.30
18291;DHT22;9271;48.590;8.866;2023-07-22T07:38:23;24.10;93.10
18291;DHT22;9271;48.590;8.866;2023-07-22T07:40:52;25.00;91.50
18291;DHT22;9271;48.590;8.866;2023-07-22T07:43:20;26.40;87.80
18291;DHT22;9271;48.590;8.866;2023-07-22T07:45:46;27.40;83.20
18291;DHT22;9271;48.590;8.866;2023-07-22T07:48:13;28.90;76.50
18291;DHT22;9271;48.590;8.866;2023-07-22T07:50:40;29.10;73.70
18291;DHT22;9271;48.590;8.866;2023-07-22T07:53:06;30.40;69.10
18291;DHT22;9271;48.590;8.866;2023-07-22T07:55:33;31.70;63.50
18291;DHT22;9271;48.590;8.866;2023-07-22T07:58:00;32.90;57.50
18291;DHT22;9271;48.590;8.866;2023-07-22T08:00:28;33.30;54.70
18291;DHT22;9271;48.590;8.866;2023-07-22T08:02:54;33.90;53.70
18291;DHT22;9271;48.590;8.866;2023-07-22T08:05:21;34.00;50.70
18291;DHT22;9271;48.590;8.866;2023-07-22T08:07:48;34.20;48.40
18291;DHT22;9271;48.590;8.866;2023-07-22T08:10:14;32.80;49.80
18291;DHT22;9271;48.590;8.866;2023-07-22T08:12:41;33.80;50.40
18291;DHT22;9271;48.590;8.866;2023-07-22T08:15:08;35.10;47.00
18291;DHT22;9271;48.590;8.866;2023-07-22T08:17:36;35.60;40.70
18291;DHT22;9271;48.590;8.866;2023-07-22T08:20:03;34.00;38.10
18291;DHT22;9271;48.590;8.866;2023-07-22T08:22:31;33.60;37.90
18291;DHT22;9271;48.590;8.866;2023-07-22T08:24:58;33.10;40.20
18291;DHT22;9271;48.590;8.866;2023-07-22T08:27:25;32.10;38.80
18291;DHT22;9271;48.590;8.866;2023-07-22T08:29:51;31.30;42.40
18291;DHT22;9271;48.590;8.866;2023-07-22T08:32:18;32.30;42.50
18291;DHT22;9271;48.590;8.866;2023-07-22T08:34:46;33.50;40.60
18291;DHT22;9271;48.590;8.866;2023-07-22T08:37:13;32.80;35.50
18291;DHT22;9271;48.590;8.866;2023-07-22T08:39:39;32.00;37.30
18291;DHT22;9271;48.590;8.866;2023-07-22T08:42:07;28.50;41.40
18291;DHT22;9271;48.590;8.866;2023-07-22T08:44:38;26.90;44.80
18291;DHT22;9271;48.590;8.866;2023-07-22T08:47:10;25.80;46.70
18291;DHT22;9271;48.590;8.866;2023-07-22T08:49:44;26.60;47.60
18291;DHT22;9271;48.590;8.866;2023-07-22T08:52:14;26.80;47.20
18291;DHT22;9271;48.590;8.866;2023-07-22T08:54:41;26.40;48.70
18291;DHT22;9271;48.590;8.866;2023-07-22T08:57:09;25.60;49.60
18291;DHT22;9271;48.590;8.866;2023-07-22T08:59:37;26.00;51.20
18291;DHT22;9271;48.590;8.866;2023-07-22T09:02:05;27.50;47.80
18291;DHT22;9271;48.590;8.866;2023-07-22T09:04:32;29.90;47.80
18291;DHT22;9271;48.590;8.866;2023-07-22T09:06:59;31.90;43.30
18291;DHT22;9271;48.590;8.866;2023-07-22T09:09:27;31.00;42.80
18291;DHT22;9271;48.590;8.866;2023-07-22T09:11:54;30.80;43.40
18291;DHT22;9271;48.590;8.866;2023-07-22T09:14:22;29.50;44.80
18291;DHT22;9271;48.590;8.866;2023-07-22T09:16:49;28.50;47.10
18291;DHT22;9271;48.590;8.866;2023-07-22T09:19:16;27.60;46.20
18291;DHT22;9271;48.590;8.866;2023-07-22T09:21:44;27.20;49.10
18291;DHT22;9271;48.590;8.866;2023-07-22T09:24:21;26.30;48.30
18291;DHT22;9271;48.590;8.866;2023-07-22T09:26:49;25.70;50.60
18291;DHT22;9271;48.590;8.866;2023-07-22T09:29:16;25.60;51.00
18291;DHT22;9271;48.590;8.866;2023-07-22T09:31:50;25.60;51.60
18291;DHT22;9271;48.590;8.866;2023-07-22T09:34:18;25.00;52.50
18291;DHT22;9271;48.590;8.866;2023-07-22T09:36:50;25.20;52.10
18291;DHT22;9271;48.590;8.866;2023-07-22T09:39:17;25.10;53.10
18291;DHT22;9271;48.590;8.866;2023-07-22T09:41:44;25.10;53.50
18291;DHT22;9271;48.590;8.866;2023-07-22T09:44:12;24.90;54.10
18291;DHT22;9271;48.590;8.866;2023-07-22T09:46:39;26.20;52.40
18291;DHT22;9271;48.590;8.866;2023-07-22T09:49:07;28.10;48.10
18291;DHT22;9271;48.590;8.866;2023-07-22T09:51:35;27.10;49.30
18291;DHT22;9271;48.590;8.866;2023-07-22T09:54:04;27.50;49.30
18291;DHT22;9271;48.590;8.866;2023-07-22T09:56:31;28.30;49.90
18291;DHT22;9271;48.590;8.866;2023-07-22T09:58:59;28.60;48.20
18291;DHT22;9271;48.590;8.866;2023-07-22T10:01:27;28.70;50.20
18291;DHT22;9271;48.590;8.866;2023-07-22T10:03:55;29.50;43.80
18291;DHT22;9271;48.590;8.866;2023-07-22T10:06:23;31.50;42.90
18291;DHT22;9271;48.590;8.866;2023-07-22T10:08:51;32.80;39.00
18291;DHT22;9271;48.590;8.866;2023-07-22T10:11:18;30.90;39.50
18291;DHT22;9271;48.590;8.866;2023-07-22T10:13:45;30.40;41.50
18291;DHT22;9271;48.590;8.866;2023-07-22T10:16:12;29.60;42.00
18291;DHT22;9271;48.590;8.866;2023-07-22T10:18:40;27.00;43.60
18291;DHT22;9271;48.590;8.866;2023-07-22T10:21:08;27.10;45.10
18291;DHT22;9271;48.590;8.866;2023-07-22T10:23:35;28.80;43.90
18291;DHT22;9271;48.590;8.866;2023-07-22T10:26:03;31.30;40.40
18291;DHT22;9271;48.590;8.866;2023-07-22T10:28:31;31.90;39.20
18291;DHT22;9271;48.590;8.866;2023-07-22T10:30:58;30.50;40.80
18291;DHT22;9271;48.590;8.866;2023-07-22T10:33:26;28.40;43.10
18291;DHT22;9271;48.590;8.866;2023-07-22T10:36:04;27.70;45.50
18291;DHT22;9271;48.590;8.866;2023-07-22T10:38:32;28.40;45.50
18291;DHT22;9271;48.590;8.866;2023-07-22T10:40:58;30.80;43.50
18291;DHT22;9271;48.590;8.866;2023-07-22T10:43:27;32.20;40.60
18291;DHT22;9271;48.590;8.866;2023-07-22T10:45:55;32.20;39.50
18291;DHT22;9271;48.590;8.866;2023-07-22T10:48:25;30.90;44.70
18291;DHT22;9271;48.590;8.866;2023-07-22T10:50:54;30.10;44.50
18291;DHT22;9271;48.590;8.866;2023-07-22T10:53:28;29.20;46.80
18291;DHT22;9271;48.590;8.866;2023-07-22T10:56:07;29.00;47.10
18291;DHT22;9271;48.590;8.866;2023-07-22T10:58:59;29.20;46.70
18291;DHT22;9271;48.590;8.866;2023-07-22T11:01:34;28.30;48.80
18291;DHT22;9271;48.590;8.866;2023-07-22T11:04:09;30.50;45.40
18291;DHT22;9271;48.590;8.866;2023-07-22T11:06:38;32.00;42.20
18291;DHT22;9271;48.590;8.866;2023-07-22T11:09:06;30.10;43.70
18291;DHT22;9271;48.590;8.866;2023-07-22T11:11:37;32.20;44.50
18291;DHT22;9271;48.590;8.866;2023-07-22T11:14:16;33.30;38.50
18291;DHT22;9271;48.590;8.866;2023-07-22T11:16:44;35.00;38.00
18291;DHT22;9271;48.590;8.866;2023-07-22T11:19:12;37.10;34.60
18291;DHT22;9271;48.590;8.866;2023-07-22T11:21:39;35.70;34.30
18291;DHT22;9271;48.590;8.866;2023-07-22T11:24:06;32.20;37.70
18291;DHT22;9271;48.590;8.866;2023-07-22T11:26:33;28.70;44.40
18291;DHT22;9271;48.590;8.866;2023-07-22T11:29:00;27.80;46.60
18291;DHT22;9271;48.590;8.866;2023-07-22T11:31:33;28.30;48.40
18291;DHT22;9271;48.590;8.866;2023-07-22T11:33:59;30.00;42.90
18291;DHT22;9271;48.590;8.866;2023-07-22T11:36:26;29.60;43.30
18291;DHT22;9271;48.590;8.866;2023-07-22T11:38:53;29.10;44.00
18291;DHT22;9271;48.590;8.866;2023-07-22T11:41:20;27.90;45.60
18291;DHT22;9271;48.590;8.866;2023-07-22T11:43:47;27.50;46.10
18291;DHT22;9271;48.590;8.866;2023-07-22T11:46:14;26.80;47.30
18291;DHT22;9271;48.590;8.866;2023-07-22T11:48:50;27.90;47.30
18291;DHT22;9271;48.590;8.866;2023-07-22T11:51:19;29.30;44.60
18291;DHT22;9271;48.590;8.866;2023-07-22T11:53:47;31.10;40.50
18291;DHT22;9271;48.590;8.866;2023-07-22T11:56:18;32.20;41.60
18291;DHT22;9271;48.590;8.866;2023-07-22T11:58:49;32.20;37.90
18291;DHT22;9271;48.590;8.866;2023-07-22T12:01:16;33.80;36.60
18291;DHT22;9271;48.590;8.866;2023-07-22T12:03:42;33.80;35.70
18291;DHT22;9271;48.590;8.866;2023-07-22T12:06:11;32.90;37.00
18291;DHT22;9271;48.590;8.866;2023-07-22T12:08:43;31.50;39.10
18291;DHT22;9271;48.590;8.866;2023-07-22T12:11:16;31.10;40.90
18291;DHT22;9271;48.590;8.866;2023-07-22T12:13:43;30.30;43.10
18291;DHT22;9271;48.590;8.866;2023-07-22T12:16:12;29.60;42.60
18291;DHT22;9271;48.590;8.866;2023-07-22T12:18:42;29.60;44.40
18291;DHT22;9271;48.590;8.866;2023-07-22T12:21:10;31.90;41.80
18291;DHT22;9271;48.590;8.866;2023-07-22T12:23:37;33.90;36.60
18291;DHT22;9271;48.590;8.866;2023-07-22T12:26:04;32.50;36.60
18291;DHT22;9271;48.590;8.866;2023-07-22T12:28:31;31.30;39.50
18291;DHT22;9271;48.590;8.866;2023-07-22T12:30:57;33.00;37.10
18291;DHT22;9271;48.590;8.866;2023-07-22T12:33:24;34.30;35.70
18291;DHT22;9271;48.590;8.866;2023-07-22T12:35:52;34.70;34.20
18291;DHT22;9271;48.590;8.866;2023-07-22T12:38:20;33.10;34.50
18291;DHT22;9271;48.590;8.866;2023-07-22T12:40:47;33.30;35.00
18291;DHT22;9271;48.590;8.866;2023-07-22T12:43:14;31.90;36.50
18291;DHT22;9271;48.590;8.866;2023-07-22T12:45:41;32.40;37.00
18291;DHT22;9271;48.590;8.866;2023-07-22T12:48:09;31.80;36.30
18291;DHT22;9271;48.590;8.866;2023-07-22T12:50:36;32.20;37.50
18291;DHT22;9271;48.590;8.866;2023-07-22T12:53:02;32.10;36.90
18291;DHT22;9271;48.590;8.866;2023-07-22T12:55:30;33.40;35.50
18291;DHT22;9271;48.590;8.866;2023-07-22T12:57:57;33.60;34.00
18291;DHT22;9271;48.590;8.866;2023-07-22T13:00:24;30.70;37.70
18291;DHT22;9271;48.590;8.866;2023-07-22T13:02:50;29.00;42.30
18291;DHT22;9271;48.590;8.866;2023-07-22T13:05:18;28.50;42.20
18291;DHT22;9271;48.590;8.866;2023-07-22T13:07:44;28.20;43.00
18291;DHT22;9271;48.590;8.866;2023-07-22T13:10:11;29.40;41.60
18291;DHT22;9271;48.590;8.866;2023-07-22T13:12:43;31.60;39.20
18291;DHT22;9271;48.590;8.866;2023-07-22T13:15:10;31.50;36.90
18291;DHT22;9271;48.590;8.866;2023-07-22T13:17:36;31.10;37.30
18291;DHT22;9271;48.590;8.866;2023-07-22T13:20:04;30.60;37.80
18291;DHT22;9271;48.590;8.866;2023-07-22T13:22:32;29.80;38.70
18291;DHT22;9271;48.590;8.866;2023-07-22T13:24:59;29.20;39.80
18291;DHT22;9271;48.590;8.866;2023-07-22T13:27:25;29.60;39.60
18291;DHT22;9271;48.590;8.866;2023-07-22T13:29:53;29.80;39.50
18291;DHT22;9271;48.590;8.866;2023-07-22T13:32:20;30.90;38.50
18291;DHT22;9271;48.590;8.866;2023-07-22T13:34:46;30.70;38.50
18291;DHT22;9271;48.590;8.866;2023-07-22T13:37:13;29.30;40.30
18291;DHT22;9271;48.590;8.866;2023-07-22T13:39:40;29.80;40.80
18291;DHT22;9271;48.590;8.866;2023-07-22T13:42:06;32.20;39.50
18291;DHT22;9271;48.590;8.866;2023-07-22T13:44:34;33.90;37.70
18291;DHT22;9271;48.590;8.866;2023-07-22T13:47:03;33.30;35.30
18291;DHT22;9271;48.590;8.866;2023-07-22T13:49:29;32.30;36.70
18291;DHT22;9271;48.590;8.866;2023-07-22T13:51:56;31.00;38.80
18291;DHT22;9271;48.590;8.866;2023-07-22T13:54:22;30.30;38.10
18291;DHT22;9271;48.590;8.866;2023-07-22T13:56:49;29.50;39.60
18291;DHT22;9271;48.590;8.866;2023-07-22T13:59:16;28.40;40.40
18291;DHT22;9271;48.590;8.866;2023-07-22T14:01:42;27.90;41.70
18291;DHT22;9271;48.590;8.866;2023-07-22T14:04:11;27.80;43.20
18291;DHT22;9271;48.590;8.866;2023-07-22T14:06:37;28.60;42.90
18291;DHT22;9271;48.590;8.866;2023-07-22T14:09:04;29.80;40.70
18291;DHT22;9271;48.590;8.866;2023-07-22T14:11:31;30.80;40.00
18291;DHT22;9271;48.590;8.866;2023-07-22T14:13:57;31.60;38.70
18291;DHT22;9271;48.590;8.866;2023-07-22T14:16:24;31.00;39.90
18291;DHT22;9271;48.590;8.866;2023-07-22T14:18:50;31.70;40.50
18291;DHT22;9271;48.590;8.866;2023-07-22T14:21:19;31.80;38.00
18291;DHT22;9271;48.590;8.866;2023-07-22T14:23:46;29.80;39.50
18291;DHT22;9271;48.590;8.866;2023-07-22T14:26:12;29.30;41.20
18291;DHT22;9271;48.590;8.866;2023-07-22T14:28:39;29.10;41.60
18291;DHT22;9271;48.590;8.866;2023-07-22T14:31:06;30.90;42.60
18291;DHT22;9271;48.590;8.866;2023-07-22T14:33:33;31.70;38.10
18291;DHT22;9271;48.590;8.866;2023-07-22T14:35:59;31.50;38.40
18291;DHT22;9271;48.590;8.866;2023-07-22T14:38:27;30.40;39.50
18291;DHT22;9271;48.590;8.866;2023-07-22T14:40:54;28.80;41.70
18291;DHT22;9271;48.590;8.866;2023-07-22T14:43:21;28.90;42.20
18291;DHT22;9271;48.590;8.866;2023-07-22T14:45:47;28.70;42.40
18291;DHT22;9271;48.590;8.866;2023-07-22T14:48:14;28.40;43.30
18291;DHT22;9271;48.590;8.866;2023-07-22T14:50:41;28.30;44.60
18291;DHT22;9271;48.590;8.866;2023-07-22T14:53:07;28.30;43.00
18291;DHT22;9271;48.590;8.866;2023-07-22T14:55:35;28.60;42.50
18291;DHT22;9271;48.590;8.866;2023-07-22T14:58:02;28.50;42.80
18291;DHT22;9271;48.590;8.866;2023-07-22T15:00:29;28.20;44.70
18291;DHT22;9271;48.590;8.866;2023-07-22T15:02:56;28.10;43.30
18291;DHT22;9271;48.590;8.866;2023-07-22T15:05:22;28.30;43.50
18291;DHT22;9271;48.590;8.866;2023-07-22T15:07:50;28.70;41.50
18291;DHT22;9271;48.590;8.866;2023-07-22T15:10:16;28.60;41.80
18291;DHT22;9271;48.590;8.866;2023-07-22T15:12:44;28.60;41.70
18291;DHT22;9271;48.590;8.866;2023-07-22T15:15:12;28.90;42.30
18291;DHT22;9271;48.590;8.866;2023-07-22T15:17:39;28.40;42.00
18291;DHT22;9271;48.590;8.866;2023-07-22T15:20:06;28.00;43.00
18291;DHT22;9271;48.590;8.866;2023-07-22T15:22:33;27.30;42.90
18291;DHT22;9271;48.590;8.866;2023-07-22T15:25:00;26.80;44.30
18291;DHT22;9271;48.590;8.866;2023-07-22T15:27:26;26.30;45.00
18291;DHT22;9271;48.590;8.866;2023-07-22T15:29:54;26.20;45.20
18291;DHT22;9271;48.590;8.866;2023-07-22T15:32:21;26.10;45.30
18291;DHT22;9271;48.590;8.866;2023-07-22T15:34:48;26.30;45.70
18291;DHT22;9271;48.590;8.866;2023-07-22T15:37:14;26.40;45.20
18291;DHT22;9271;48.590;8.866;2023-07-22T15:39:41;26.00;46.00
18291;DHT22;9271;48.590;8.866;2023-07-22T15:42:08;26.10;45.50
18291;DHT22;9271;48.590;8.866;2023-07-22T15:44:35;27.00;44.40
18291;DHT22;9271;48.590;8.866;2023-07-22T15:47:04;27.50;43.50